Latest Weather Observations for Truscott

IDW60801

Issued at 4:05 pm WST Saturday 1 November 2014 (issued every 30 minutes, with the page automatically refreshed every 10 minutes)

About weather observations | Map of weather stations | Latest weather observations for WA | Other Formats
Station Details ID: 001020 Name: TRUSCOTT Lat: -14.09 Lon: 126.39 Height: 51.0 m
Data from the previous 72 hours. | See also: Recent months at Truscott
Date/Time
WST
Temp
°C
App
Temp
°C
Dew
Point
Rel
Hum
%
Delta-T
°C
Wind Press
QNH
hPa
Press
MSL
hPa
Rain
since 9 am
mm
Dir
 
Spd
km/h
Gust
km/h
Spd
kts
Gust
kts
01/04:00pm 30.0 32.4 23.0 66 4.8 N 15 19 8 10 1007.0 - 0.0
01/03:30pm 31.0 33.2 24.0 66 4.9 N 19 19 10 10 1007.0 - 0.0
01/03:00pm 31.3 33.9 23.9 64 5.2 N 17 - 9 - 1007.0 1006.6 0.0
01/02:30pm 31.0 33.2 24.0 66 4.9 N 19 - 10 - 1007.0 - 0.0
01/02:00pm 33.0 34.1 22.0 52 7.5 N 19 - 10 - 1007.0 - 0.0
01/01:30pm 32.0 33.5 22.0 55 6.8 N 17 - 9 - 1007.0 - 0.0
01/01:00pm 33.0 35.0 23.0 55 6.9 NNW 17 - 9 - 1008.0 - 0.0
01/12:30pm 31.0 32.7 23.0 62 5.5 N 19 - 10 - 1008.0 - 0.0
01/12:00pm 32.4 34.8 24.2 62 5.7 N 19 - 10 - 1008.0 1008.3 0.0
01/11:30am 32.0 34.0 24.0 62 5.6 N 20 - 11 - 1009.0 - 0.0
01/11:00am 33.0 35.6 24.0 59 6.3 NNW 17 - 9 - 1009.0 - 0.0
01/10:30am 34.0 35.7 21.0 46 8.8 WNW 13 20 7 11 1010.0 - 0.0
01/10:00am 34.0 35.6 20.0 43 9.3 WNW 11 - 6 - 1010.0 - 0.0
01/09:30am 33.0 33.7 18.0 41 9.7 NW 11 - 6 - 1010.0 - 0.0
01/09:00am 32.1 32.9 17.2 41 9.5 WNW 9 - 5 - 1011.0 1010.4 0.0
01/08:30am 31.0 33.1 21.0 55 6.7 W 11 - 6 - 1011.0 - 0.0
01/08:00am 30.0 32.6 22.0 62 5.4 WNW 11 - 6 - 1010.0 - 0.0
01/07:30am 30.0 35.7 25.0 74 3.5 NNW 4 - 2 - 1010.0 - 0.0
01/07:00am 29.0 35.0 26.0 84 2.1 WSW 6 - 3 - 1010.0 - 0.0
01/06:30am 28.0 34.3 26.0 89 1.4 W 4 - 2 - 1010.0 - 0.0
01/06:00am 26.5 33.8 26.3 99 0.1 CALM 0 - 0 - 1009.0 1009.2 0.0
01/05:30am 25.0 31.5 25.0 100 0.0 CALM 0 - 0 - 1009.0 - 0.0
01/05:00am 25.0 31.5 25.0 100 0.0 CALM 0 - 0 - 1009.0 - 0.0
01/04:30am 25.0 31.5 25.0 100 0.0 CALM 0 - 0 - 1008.0 - 0.0
01/04:00am 25.0 30.8 24.0 94 0.7 CALM 0 - 0 - 1008.0 - 0.0
01/03:30am 25.0 31.5 25.0 100 0.0 CALM 0 - 0 - 1008.0 - 0.0
01/03:00am 25.2 31.3 24.5 96 0.5 CALM 0 - 0 - 1007.0 1007.0 0.0
01/02:30am 25.0 31.5 25.0 100 0.0 WNW 0 0 0 0 1007.0 - 0.0
01/02:00am 26.0 32.1 25.0 94 0.7 WNW 2 - 1 - 1007.0 - 0.0
01/01:30am 25.0 31.5 25.0 100 0.0 CALM 0 - 0 - 1007.0 - 0.0
01/01:28am 25.0 31.5 25.0 100 0.0 WNW 0 0 0 0 1007.0 - 0.0
01/01:00am 26.0 32.5 25.0 94 0.7 CALM 0 - 0 - 1007.0 - 0.0
01/12:56am 26.0 32.5 25.0 94 0.7 CALM 0 - 0 - 1007.0 - 0.0
01/12:50am 26.0 32.5 25.0 94 0.7 CALM 0 - 0 - 1007.0 - 0.0
01/12:30am 26.0 32.1 25.0 94 0.7 WNW 2 - 1 - 1007.0 - 0.0
01/12:05am 27.0 33.3 26.0 94 0.7 WSW 4 - 2 - 1008.0 - 0.0
01/12:00am 26.7 32.7 26.0 96 0.5 W 6 6 3 3 1008.0 1007.6 0.0
 
Date/Time
WST
Temp
°C
App
Temp
°C
Dew
Point
Rel
Hum
%
Delta-T
°C
Wind Press
QNH
hPa
Press
MSL
hPa
Rain
since 9 am
mm
Dir
 
Spd
km/h
Gust
km/h
Spd
kts
Gust
kts
31/11:51pm 27.0 32.8 26.0 94 0.7 WNW 7 - 4 - 1008.0 - 0.0
31/11:38pm 26.0 31.8 26.0 100 0.0 NW 7 - 4 - 1008.0 - 0.0
31/11:30pm 26.0 31.8 26.0 100 0.0 WNW 7 - 4 - 1008.0 - 0.0
31/11:00pm 26.0 31.1 25.0 94 0.7 NNW 7 - 4 - 1008.0 - 0.0
31/10:30pm 27.0 32.7 25.0 89 1.4 W 4 - 2 - 1009.0 - 0.0
31/10:00pm 27.0 32.3 25.0 89 1.4 NNW 6 - 3 - 1009.0 - 0.0
31/09:30pm 28.0 33.1 25.0 84 2.1 W 7 - 4 - 1009.0 - 0.0
31/09:00pm 28.0 33.3 25.2 85 2.0 WNW 7 - 4 - 1009.0 1008.9 0.0
31/08:30pm 28.0 32.7 25.0 84 2.1 WSW 9 - 5 - 1009.0 - 0.0
31/08:02pm 29.0 33.7 25.0 79 2.8 W 9 7 5 4 1009.0 - 0.0
31/08:00pm 29.0 33.7 25.0 79 2.8 W 9 - 5 - 1009.0 - 0.0
31/07:47pm 29.0 32.8 24.0 74 3.5 W 11 - 6 - 1009.0 - 0.0
31/07:30pm 29.0 32.8 24.0 74 3.5 W 11 11 6 6 1008.0 - 0.0
31/07:00pm 29.0 32.8 24.0 74 3.5 WNW 11 - 6 - 1008.0 - 0.0
31/06:30pm 29.0 32.2 23.0 70 4.1 WNW 11 - 6 - 1008.0 - 0.0
31/06:00pm 29.7 33.3 24.3 73 3.8 WNW 13 13 7 7 1008.0 1007.5 0.0
31/05:30pm 30.0 34.0 25.0 74 3.5 NW 13 - 7 - 1007.0 - 0.0
31/05:00pm 30.0 34.0 25.0 74 3.5 NW 13 - 7 - 1007.0 - 0.0
31/04:30pm 30.0 33.0 24.0 70 4.2 NW 15 - 8 - 1007.0 - 0.0
31/04:00pm 31.0 34.0 24.0 66 4.9 NNW 15 - 8 - 1007.0 - 0.0
31/03:30pm 32.0 34.6 24.0 62 5.6 NNW 17 - 9 - 1007.0 - 0.0
31/03:00pm 31.8 33.5 23.1 60 6.0 NNW 19 - 10 - 1007.0 1006.5 0.0
31/02:30pm 33.0 36.2 25.0 63 5.7 NNW 17 - 9 - 1007.0 - 0.0
31/02:00pm 33.0 36.6 25.0 63 5.7 NNW 15 - 8 - 1007.0 - 0.0
31/01:30pm 33.0 36.2 25.0 63 5.7 NW 17 - 9 - 1007.0 - 0.0
31/01:00pm 33.0 35.8 25.0 63 5.7 NNW 19 - 10 - 1008.0 - 0.0
31/12:30pm 33.0 35.6 24.0 59 6.3 NNW 17 - 9 - 1008.0 - 0.0
31/12:00pm 32.8 35.6 23.7 58 6.3 NNW 15 - 8 - 1008.0 1008.1 0.0
31/11:30am 33.0 35.4 23.0 55 6.9 NW 15 - 8 - 1009.0 - 0.0
31/11:00am 33.0 35.8 23.0 55 6.9 WNW 13 - 7 - 1009.0 - 0.0
31/10:30am 33.0 35.3 22.0 52 7.5 WNW 13 - 7 - 1009.0 - 0.0
31/10:00am 33.0 34.4 21.0 49 8.1 WNW 15 - 8 - 1010.0 - 0.0
31/09:30am 32.0 34.3 22.0 55 6.8 WNW 13 - 7 - 1010.0 - 0.0
31/09:00am 31.5 34.0 21.1 54 7.0 NW 9 - 5 - 1010.0 1010.3 0.0
31/08:30am 31.0 33.6 22.0 58 6.1 W 11 - 6 - 1011.0 - 0.0
31/08:00am 29.0 32.2 23.0 70 4.1 W 11 - 6 - 1011.0 - 0.0
31/07:30am 29.0 32.8 24.0 74 3.5 W 11 - 6 - 1011.0 - 0.0
31/07:00am 29.0 32.8 24.0 74 3.5 WNW 11 - 6 - 1010.0 - 0.0
31/06:30am 28.0 32.1 24.0 79 2.8 NW 9 - 5 - 1010.0 - 0.0
31/06:00am 27.5 33.9 24.9 86 1.8 CALM 0 - 0 - 1010.0 1009.4 0.0
31/05:30am 26.0 32.5 25.0 94 0.7 CALM 0 - 0 - 1009.0 - 0.0
31/05:00am 26.0 31.8 24.0 89 1.4 CALM 0 - 0 - 1008.0 - 0.0
31/04:30am 27.0 31.7 24.0 83 2.1 W 6 - 3 - 1008.0 - 0.0
31/04:00am 27.0 32.1 25.0 89 1.4 W 7 - 4 - 1008.0 - 0.0
31/03:30am 27.0 31.7 25.0 89 1.4 W 9 - 5 - 1007.0 - 0.0
31/03:00am 27.3 32.1 25.1 88 1.5 W 9 - 5 - 1007.0 1007.1 0.0
31/02:30am 27.0 31.7 25.0 89 1.4 W 9 - 5 - 1007.0 - 0.0
31/02:00am 28.0 32.7 25.0 84 2.1 W 9 - 5 - 1007.0 - 0.0
31/01:30am 27.0 31.7 25.0 89 1.4 W 9 - 5 - 1007.0 - 0.0
31/01:00am 27.0 32.3 25.0 89 1.4 WNW 6 - 3 - 1008.0 - 0.0
31/12:30am 27.0 32.3 25.0 89 1.4 NW 6 - 3 - 1008.0 - 0.0
31/12:00am 27.7 32.9 25.1 86 1.8 WNW 7 - 4 - 1008.0 1008.2 0.0
 
Date/Time
WST
Temp
°C
App
Temp
°C
Dew
Point
Rel
Hum
%
Delta-T
°C
Wind Press
QNH
hPa
Press
MSL
hPa
Rain
since 9 am
mm
Dir
 
Spd
km/h
Gust
km/h
Spd
kts
Gust
kts
30/11:30pm 28.0 33.1 25.0 84 2.1 NW 7 - 4 - 1009.0 - 0.0
30/11:00pm 28.0 33.8 26.0 89 1.4 NW 7 - 4 - 1009.0 - 0.0
30/10:30pm 28.0 33.8 26.0 89 1.4 NW 7 - 4 - 1009.0 - 0.0
30/10:00pm 28.0 33.3 25.0 84 2.1 WNW 6 - 3 - 1009.0 - 0.0
30/09:30pm 28.0 33.1 25.0 84 2.1 WNW 7 - 4 - 1009.0 - 0.0
30/09:00pm 28.2 33.2 25.4 85 2.0 WNW 9 - 5 - 1009.0 1009.0 0.0
30/08:30pm 29.0 34.0 26.0 84 2.1 W 11 - 6 - 1009.0 - 0.0
30/08:00pm 29.0 34.0 26.0 84 2.1 W 11 - 6 - 1009.0 - 0.0
30/07:30pm 29.0 33.7 25.0 79 2.8 WSW 9 - 5 - 1008.0 - 0.0
30/07:00pm 29.0 33.4 25.0 79 2.8 W 11 - 6 - 1008.0 - 0.0
30/06:30pm 29.0 33.7 25.0 79 2.8 W 9 - 5 - 1008.0 - 0.0
30/06:00pm 29.5 34.1 25.3 78 3.0 W 11 - 6 - 1007.0 1007.2 0.0
30/05:30pm 30.0 34.4 25.0 74 3.5 W 11 - 6 - 1007.0 - 0.0
30/05:00pm 30.0 33.0 24.0 70 4.2 NW 15 - 8 - 1007.0 - 0.0
30/04:30pm 31.0 35.0 25.0 70 4.2 NNW 13 - 7 - 1006.0 - 0.0
30/04:00pm 31.0 34.6 25.0 70 4.2 NNW 15 - 8 - 1006.0 - 0.0
30/03:30pm 32.0 34.4 23.0 59 6.2 WNW 15 - 8 - 1006.0 - 0.0
30/03:00pm 32.4 35.0 23.9 61 5.9 NW 17 - 9 - 1006.0 1006.1 0.0
30/02:30pm 33.0 35.6 24.0 59 6.3 NNW 17 - 9 - 1006.0 - 0.0
30/02:00pm 33.0 35.0 23.0 55 6.9 NW 17 - 9 - 1007.0 - 0.0
30/01:30pm 33.0 35.0 23.0 55 6.9 NW 17 - 9 - 1007.0 - 0.0
30/01:00pm 32.0 33.5 23.0 59 6.2 NNW 20 - 11 - 1008.0 - 0.0
30/12:30pm 32.0 33.7 23.0 59 6.2 NW 19 - 10 - 1008.0 - 0.0
30/12:00pm 32.5 35.4 24.5 62 5.6 NNW 17 - 9 - 1008.0 1008.2 0.0
30/11:30am 32.0 34.2 24.0 62 5.6 NNW 19 - 10 - 1009.0 - 0.0
30/11:00am 33.0 35.6 24.0 59 6.3 NNW 17 - 9 - 1009.0 - 0.0
30/10:30am 32.0 35.0 24.0 62 5.6 N 15 - 8 - 1010.0 - 0.0
30/10:00am 32.0 35.0 24.0 62 5.6 N 15 - 8 - 1010.0 - 0.0
30/09:30am 32.0 35.6 25.0 66 4.9 N 15 - 8 - 1010.0 - 0.0
30/09:00am 31.3 34.9 24.4 66 4.8 N 13 - 7 - 1010.0 1010.2 0.0
30/08:30am 32.0 36.4 25.0 66 4.9 NNW 11 - 6 - 1010.0 - 0.0
30/08:00am 31.0 36.1 25.0 70 4.2 N 7 - 4 - 1011.0 - 0.0
30/07:30am 30.0 34.4 25.0 74 3.5 N 11 - 6 - 1011.0 - 0.0
30/07:00am 30.0 35.8 26.0 79 2.8 NNE 7 - 4 - 1010.0 - 0.0
30/06:30am 29.0 36.1 26.0 84 2.1 CALM 0 - 0 - 1010.0 - 0.0
30/06:00am 27.5 34.1 26.4 94 0.8 WSW 4 - 2 - 1009.0 1009.1 0.0
30/05:30am 26.0 32.5 25.0 94 0.7 CALM 0 - 0 - 1009.0 - 0.0
30/05:00am 27.0 33.0 26.0 94 0.7 SW 6 - 3 - 1009.0 - 0.0
30/04:30am 27.0 32.8 26.0 94 0.7 WSW 7 - 4 - 1008.0 - 0.0
30/04:00am 27.0 32.0 26.0 94 0.7 WSW 11 - 6 - 1008.0 - 0.0
30/03:30am 27.0 32.4 26.0 94 0.7 WSW 9 - 5 - 1008.0 - 0.0
30/03:00am 27.2 32.1 25.8 92 1.0 WSW 11 - 6 - 1008.0 1007.7 0.0
30/02:30am 27.0 32.4 26.0 94 0.7 WSW 9 - 5 - 1008.0 - 0.0
30/02:00am 27.0 32.0 26.0 94 0.7 WSW 11 - 6 - 1008.0 - 0.0
30/01:30am 27.0 32.8 26.0 94 0.7 WSW 7 - 4 - 1008.0 - 0.0
30/01:00am 27.0 32.4 26.0 94 0.7 W 9 - 5 - 1008.0 - 0.0
30/12:30am 28.0 33.8 26.0 89 1.4 W 7 - 4 - 1009.0 - 0.0
30/12:00am 27.6 32.0 25.6 89 1.4 W 13 - 7 - 1009.0 1008.7 0.0
 
Date/Time
WST
Temp
°C
App
Temp
°C
Dew
Point
Rel
Hum
%
Delta-T
°C
Wind Press
QNH
hPa
Press
MSL
hPa
Rain
since 9 am
mm
Dir
 
Spd
km/h
Gust
km/h
Spd
kts
Gust
kts
29/11:30pm 28.0 32.4 25.0 84 2.1 W 11 - 6 - 1009.0 - 0.0
29/11:00pm 28.0 32.7 25.0 84 2.1 W 9 - 5 - 1009.0 - 0.0
29/10:30pm 28.0 32.7 25.0 84 2.1 W 9 - 5 - 1010.0 - 0.0
29/10:00pm 28.0 32.5 24.0 79 2.8 W 7 - 4 - 1010.0 - 0.0
29/09:30pm 28.0 32.5 24.0 79 2.8 WSW 7 - 4 - 1010.0 - 0.0
29/09:00pm 28.0 32.9 24.6 82 2.4 WSW 7 - 4 - 1011.0 1010.4 0.0
29/08:30pm 28.0 32.7 24.0 79 2.8 W 6 - 3 - 1010.0 - 0.0
29/08:00pm 29.0 32.6 23.0 70 4.1 W 9 - 5 - 1010.0 - 0.0
29/07:30pm 29.0 33.5 24.0 74 3.5 WNW 7 - 4 - 1010.0 - 0.0
29/07:00pm 29.0 32.4 22.0 66 4.7 WNW 7 - 4 - 1010.0 - 0.0
29/06:30pm 29.0 33.5 24.0 74 3.5 NW 7 - 4 - 1010.0 - 0.0
29/06:00pm 29.0 33.5 24.6 77 3.1 NW 9 - 5 - 1010.0 1009.4 0.0
29/05:30pm 29.0 33.7 25.0 79 2.8 NW 9 - 5 - 1010.0 - 0.0
29/05:00pm 30.0 32.6 22.0 62 5.4 NNW 11 - 6 - 1009.0 - 0.0
29/04:30pm 30.0 30.9 20.0 55 6.6 NNW 15 - 8 - 1009.0 - 0.0

Other Formats:

Comma delimited format used in spreadsheet applications
http://www.bom.gov.au/fwo/IDW60801/IDW60801.95101.axf

JavaScript Object Notation format (JSON) in row-major order
http://www.bom.gov.au/fwo/IDW60801/IDW60801.95101.json